sensor_id;sensor_type;location;lat;lon;timestamp;P1;durP1;ratioP1;P2;durP2;ratioP2
44068;SDS011;29738;51.234;5.484;2023-03-12T00:00:45;11.07;;;4.95;;
44068;SDS011;29738;51.234;5.484;2023-03-12T00:03:12;8.43;;;4.63;;
44068;SDS011;29738;51.234;5.484;2023-03-12T00:05:39;7.57;;;4.40;;
44068;SDS011;29738;51.234;5.484;2023-03-12T00:08:06;9.98;;;5.50;;
44068;SDS011;29738;51.234;5.484;2023-03-12T00:10:32;14.98;;;5.68;;
44068;SDS011;29738;51.234;5.484;2023-03-12T00:12:59;9.30;;;5.28;;
44068;SDS011;29738;51.234;5.484;2023-03-12T00:15:25;11.40;;;5.57;;
44068;SDS011;29738;51.234;5.484;2023-03-12T00:17:51;9.88;;;5.50;;
44068;SDS011;29738;51.234;5.484;2023-03-12T00:20:17;10.05;;;4.82;;
44068;SDS011;29738;51.234;5.484;2023-03-12T00:22:44;9.30;;;5.32;;
44068;SDS011;29738;51.234;5.484;2023-03-12T00:25:12;7.88;;;4.85;;
44068;SDS011;29738;51.234;5.484;2023-03-12T00:27:43;9.02;;;5.25;;
44068;SDS011;29738;51.234;5.484;2023-03-12T00:30:09;11.00;;;5.88;;
44068;SDS011;29738;51.234;5.484;2023-03-12T00:32:36;10.68;;;5.93;;
44068;SDS011;29738;51.234;5.484;2023-03-12T00:35:03;11.05;;;5.78;;
44068;SDS011;29738;51.234;5.484;2023-03-12T00:37:30;12.95;;;6.38;;
44068;SDS011;29738;51.234;5.484;2023-03-12T00:39:57;8.95;;;5.97;;
44068;SDS011;29738;51.234;5.484;2023-03-12T00:42:24;11.80;;;6.40;;
44068;SDS011;29738;51.234;5.484;2023-03-12T00:44:50;12.55;;;6.93;;
44068;SDS011;29738;51.234;5.484;2023-03-12T00:47:16;11.52;;;5.55;;
44068;SDS011;29738;51.234;5.484;2023-03-12T00:49:42;14.32;;;6.07;;
44068;SDS011;29738;51.234;5.484;2023-03-12T00:52:08;9.90;;;6.53;;
44068;SDS011;29738;51.234;5.484;2023-03-12T00:54:34;10.98;;;6.13;;
44068;SDS011;29738;51.234;5.484;2023-03-12T00:56:59;10.27;;;5.63;;
44068;SDS011;29738;51.234;5.484;2023-03-12T00:59:25;11.45;;;7.30;;
44068;SDS011;29738;51.234;5.484;2023-03-12T01:01:52;11.93;;;7.28;;
44068;SDS011;29738;51.234;5.484;2023-03-12T01:04:17;12.15;;;7.43;;
44068;SDS011;29738;51.234;5.484;2023-03-12T01:06:43;12.00;;;7.30;;
44068;SDS011;29738;51.234;5.484;2023-03-12T01:09:10;13.40;;;7.00;;
44068;SDS011;29738;51.234;5.484;2023-03-12T01:11:36;11.65;;;6.70;;
44068;SDS011;29738;51.234;5.484;2023-03-12T01:14:03;10.68;;;5.40;;
44068;SDS011;29738;51.234;5.484;2023-03-12T01:16:31;13.68;;;6.75;;
44068;SDS011;29738;51.234;5.484;2023-03-12T01:18:58;13.57;;;5.63;;
44068;SDS011;29738;51.234;5.484;2023-03-12T01:21:25;10.93;;;5.60;;
44068;SDS011;29738;51.234;5.484;2023-03-12T01:23:52;11.85;;;6.43;;
44068;SDS011;29738;51.234;5.484;2023-03-12T01:26:19;9.82;;;5.97;;
44068;SDS011;29738;51.234;5.484;2023-03-12T01:28:45;10.98;;;6.15;;
44068;SDS011;29738;51.234;5.484;2023-03-12T01:31:12;9.32;;;5.95;;
44068;SDS011;29738;51.234;5.484;2023-03-12T01:33:39;8.70;;;5.50;;
44068;SDS011;29738;51.234;5.484;2023-03-12T01:36:12;10.23;;;5.97;;
44068;SDS011;29738;51.234;5.484;2023-03-12T01:38:50;10.27;;;5.68;;
44068;SDS011;29738;51.234;5.484;2023-03-12T01:41:17;10.57;;;5.30;;
44068;SDS011;29738;51.234;5.484;2023-03-12T01:43:46;10.30;;;5.55;;
44068;SDS011;29738;51.234;5.484;2023-03-12T01:46:20;9.10;;;5.38;;
44068;SDS011;29738;51.234;5.484;2023-03-12T01:48:49;9.40;;;5.45;;
44068;SDS011;29738;51.234;5.484;2023-03-12T01:51:21;10.50;;;4.82;;
44068;SDS011;29738;51.234;5.484;2023-03-12T01:53:52;11.07;;;5.43;;
44068;SDS011;29738;51.234;5.484;2023-03-12T01:56:24;8.05;;;4.60;;
44068;SDS011;29738;51.234;5.484;2023-03-12T01:58:55;9.00;;;4.60;;
44068;SDS011;29738;51.234;5.484;2023-03-12T02:01:24;7.68;;;4.72;;
44068;SDS011;29738;51.234;5.484;2023-03-12T02:03:52;6.95;;;4.47;;
44068;SDS011;29738;51.234;5.484;2023-03-12T02:06:27;12.90;;;4.95;;
44068;SDS011;29738;51.234;5.484;2023-03-12T02:09:14;8.43;;;4.93;;
44068;SDS011;29738;51.234;5.484;2023-03-12T02:11:44;9.43;;;5.25;;
44068;SDS011;29738;51.234;5.484;2023-03-12T02:14:10;9.18;;;4.75;;
44068;SDS011;29738;51.234;5.484;2023-03-12T02:16:38;13.40;;;5.78;;
44068;SDS011;29738;51.234;5.484;2023-03-12T02:19:07;8.88;;;5.22;;
44068;SDS011;29738;51.234;5.484;2023-03-12T02:21:43;9.57;;;5.22;;
44068;SDS011;29738;51.234;5.484;2023-03-12T02:24:14;10.75;;;4.90;;
44068;SDS011;29738;51.234;5.484;2023-03-12T02:26:44;11.85;;;4.30;;
44068;SDS011;29738;51.234;5.484;2023-03-12T02:29:12;8.85;;;4.60;;
44068;SDS011;29738;51.234;5.484;2023-03-12T02:31:42;7.50;;;4.47;;
44068;SDS011;29738;51.234;5.484;2023-03-12T02:34:13;7.18;;;4.22;;
44068;SDS011;29738;51.234;5.484;2023-03-12T02:36:39;9.05;;;5.00;;
44068;SDS011;29738;51.234;5.484;2023-03-12T02:39:05;11.95;;;5.72;;
44068;SDS011;29738;51.234;5.484;2023-03-12T02:41:40;8.43;;;5.25;;
44068;SDS011;29738;51.234;5.484;2023-03-12T02:44:20;10.07;;;5.10;;
44068;SDS011;29738;51.234;5.484;2023-03-12T02:46:48;7.93;;;4.30;;
44068;SDS011;29738;51.234;5.484;2023-03-12T02:49:17;9.20;;;4.75;;
44068;SDS011;29738;51.234;5.484;2023-03-12T02:51:45;10.23;;;4.40;;
44068;SDS011;29738;51.234;5.484;2023-03-12T02:54:12;10.32;;;4.25;;
44068;SDS011;29738;51.234;5.484;2023-03-12T02:56:39;8.20;;;3.95;;
44068;SDS011;29738;51.234;5.484;2023-03-12T02:59:07;10.27;;;4.75;;
44068;SDS011;29738;51.234;5.484;2023-03-12T03:01:36;8.00;;;4.10;;
44068;SDS011;29738;51.234;5.484;2023-03-12T03:04:03;9.85;;;4.13;;
44068;SDS011;29738;51.234;5.484;2023-03-12T03:06:30;8.43;;;3.97;;
44068;SDS011;29738;51.234;5.484;2023-03-12T03:08:57;51.03;;;23.08;;
44068;SDS011;29738;51.234;5.484;2023-03-12T03:11:23;33.65;;;17.25;;
44068;SDS011;29738;51.234;5.484;2023-03-12T03:13:50;25.70;;;11.82;;
44068;SDS011;29738;51.234;5.484;2023-03-12T03:16:16;18.40;;;8.82;;
44068;SDS011;29738;51.234;5.484;2023-03-12T03:18:42;12.32;;;6.30;;
44068;SDS011;29738;51.234;5.484;2023-03-12T03:21:08;13.35;;;8.50;;
44068;SDS011;29738;51.234;5.484;2023-03-12T03:23:40;8.25;;;5.38;;
44068;SDS011;29738;51.234;5.484;2023-03-12T03:26:07;7.88;;;4.53;;
44068;SDS011;29738;51.234;5.484;2023-03-12T03:28:35;9.75;;;3.92;;
44068;SDS011;29738;51.234;5.484;2023-03-12T03:31:02;9.43;;;4.38;;
44068;SDS011;29738;51.234;5.484;2023-03-12T03:33:28;8.98;;;4.82;;
44068;SDS011;29738;51.234;5.484;2023-03-12T03:35:58;7.72;;;4.00;;
44068;SDS011;29738;51.234;5.484;2023-03-12T03:38:26;10.65;;;4.65;;
44068;SDS011;29738;51.234;5.484;2023-03-12T03:40:53;52.35;;;27.15;;
44068;SDS011;29738;51.234;5.484;2023-03-12T03:43:20;24.27;;;11.88;;
44068;SDS011;29738;51.234;5.484;2023-03-12T03:45:47;11.88;;;6.53;;
44068;SDS011;29738;51.234;5.484;2023-03-12T03:48:13;34.08;;;17.15;;
44068;SDS011;29738;51.234;5.484;2023-03-12T03:50:40;16.77;;;8.75;;
44068;SDS011;29738;51.234;5.484;2023-03-12T03:53:06;13.75;;;6.30;;
44068;SDS011;29738;51.234;5.484;2023-03-12T03:55:37;10.65;;;6.78;;
44068;SDS011;29738;51.234;5.484;2023-03-12T03:58:06;10.07;;;6.18;;
44068;SDS011;29738;51.234;5.484;2023-03-12T04:00:32;10.02;;;5.60;;
44068;SDS011;29738;51.234;5.484;2023-03-12T04:02:58;8.02;;;3.97;;
44068;SDS011;29738;51.234;5.484;2023-03-12T04:05:25;12.05;;;5.78;;
44068;SDS011;29738;51.234;5.484;2023-03-12T04:07:51;12.00;;;5.10;;
44068;SDS011;29738;51.234;5.484;2023-03-12T04:10:22;7.80;;;4.43;;
44068;SDS011;29738;51.234;5.484;2023-03-12T04:12:49;12.35;;;5.47;;
44068;SDS011;29738;51.234;5.484;2023-03-12T04:15:15;7.10;;;3.53;;
44068;SDS011;29738;51.234;5.484;2023-03-12T04:17:41;7.22;;;3.28;;
44068;SDS011;29738;51.234;5.484;2023-03-12T04:20:07;8.02;;;3.55;;
44068;SDS011;29738;51.234;5.484;2023-03-12T04:22:35;6.15;;;3.47;;
44068;SDS011;29738;51.234;5.484;2023-03-12T04:25:02;7.70;;;3.50;;
44068;SDS011;29738;51.234;5.484;2023-03-12T04:27:28;7.28;;;2.88;;
44068;SDS011;29738;51.234;5.484;2023-03-12T04:29:54;7.60;;;3.72;;
44068;SDS011;29738;51.234;5.484;2023-03-12T04:32:20;8.88;;;3.47;;
44068;SDS011;29738;51.234;5.484;2023-03-12T04:34:46;6.55;;;2.92;;
44068;SDS011;29738;51.234;5.484;2023-03-12T04:37:12;9.07;;;3.42;;
44068;SDS011;29738;51.234;5.484;2023-03-12T04:39:40;8.23;;;3.20;;
44068;SDS011;29738;51.234;5.484;2023-03-12T04:42:07;7.93;;;3.38;;
44068;SDS011;29738;51.234;5.484;2023-03-12T04:44:34;8.13;;;3.60;;
44068;SDS011;29738;51.234;5.484;2023-03-12T04:47:00;10.23;;;3.20;;
44068;SDS011;29738;51.234;5.484;2023-03-12T04:49:26;7.63;;;3.33;;
44068;SDS011;29738;51.234;5.484;2023-03-12T04:51:52;9.57;;;4.05;;
44068;SDS011;29738;51.234;5.484;2023-03-12T04:54:18;5.55;;;3.05;;
44068;SDS011;29738;51.234;5.484;2023-03-12T04:56:48;6.97;;;4.15;;
44068;SDS011;29738;51.234;5.484;2023-03-12T04:59:14;10.15;;;3.65;;
44068;SDS011;29738;51.234;5.484;2023-03-12T05:01:40;7.63;;;3.33;;
44068;SDS011;29738;51.234;5.484;2023-03-12T05:04:07;6.22;;;3.38;;
44068;SDS011;29738;51.234;5.484;2023-03-12T05:06:33;6.90;;;3.42;;
44068;SDS011;29738;51.234;5.484;2023-03-12T05:08:59;8.50;;;3.10;;
44068;SDS011;29738;51.234;5.484;2023-03-12T05:11:26;8.65;;;3.63;;
44068;SDS011;29738;51.234;5.484;2023-03-12T05:13:52;6.38;;;3.53;;
44068;SDS011;29738;51.234;5.484;2023-03-12T05:16:18;8.57;;;3.65;;
44068;SDS011;29738;51.234;5.484;2023-03-12T05:18:44;7.97;;;3.53;;
44068;SDS011;29738;51.234;5.484;2023-03-12T05:21:12;7.75;;;3.80;;
44068;SDS011;29738;51.234;5.484;2023-03-12T05:23:47;9.23;;;3.40;;
44068;SDS011;29738;51.234;5.484;2023-03-12T05:26:20;6.70;;;3.55;;
44068;SDS011;29738;51.234;5.484;2023-03-12T05:28:48;7.95;;;3.60;;
44068;SDS011;29738;51.234;5.484;2023-03-12T05:31:18;6.38;;;3.88;;
44068;SDS011;29738;51.234;5.484;2023-03-12T05:33:44;7.82;;;3.30;;
44068;SDS011;29738;51.234;5.484;2023-03-12T05:36:11;7.43;;;4.15;;
44068;SDS011;29738;51.234;5.484;2023-03-12T05:38:37;7.32;;;3.78;;
44068;SDS011;29738;51.234;5.484;2023-03-12T05:41:03;10.82;;;3.80;;
44068;SDS011;29738;51.234;5.484;2023-03-12T05:43:30;6.47;;;3.70;;
44068;SDS011;29738;51.234;5.484;2023-03-12T05:45:59;8.57;;;4.35;;
44068;SDS011;29738;51.234;5.484;2023-03-12T05:48:27;14.48;;;3.85;;
44068;SDS011;29738;51.234;5.484;2023-03-12T05:50:54;7.63;;;4.07;;
44068;SDS011;29738;51.234;5.484;2023-03-12T05:53:21;9.23;;;3.92;;
44068;SDS011;29738;51.234;5.484;2023-03-12T05:55:47;8.38;;;4.30;;
44068;SDS011;29738;51.234;5.484;2023-03-12T05:58:13;7.82;;;4.07;;
44068;SDS011;29738;51.234;5.484;2023-03-12T06:00:39;8.10;;;3.35;;
44068;SDS011;29738;51.234;5.484;2023-03-12T06:03:09;7.25;;;3.80;;
44068;SDS011;29738;51.234;5.484;2023-03-12T06:05:35;8.77;;;4.05;;
44068;SDS011;29738;51.234;5.484;2023-03-12T06:08:02;6.88;;;3.70;;
44068;SDS011;29738;51.234;5.484;2023-03-12T06:10:29;8.23;;;3.63;;
44068;SDS011;29738;51.234;5.484;2023-03-12T06:12:55;8.82;;;4.03;;
44068;SDS011;29738;51.234;5.484;2023-03-12T06:15:22;7.70;;;4.22;;
44068;SDS011;29738;51.234;5.484;2023-03-12T06:17:50;9.00;;;4.38;;
44068;SDS011;29738;51.234;5.484;2023-03-12T06:20:16;8.70;;;4.57;;
44068;SDS011;29738;51.234;5.484;2023-03-12T06:22:42;9.82;;;4.28;;
44068;SDS011;29738;51.234;5.484;2023-03-12T06:25:08;7.50;;;3.63;;
44068;SDS011;29738;51.234;5.484;2023-03-12T06:27:34;7.55;;;4.15;;
44068;SDS011;29738;51.234;5.484;2023-03-12T06:30:00;7.60;;;4.10;;
44068;SDS011;29738;51.234;5.484;2023-03-12T06:32:27;10.00;;;4.70;;
44068;SDS011;29738;51.234;5.484;2023-03-12T06:34:56;10.30;;;4.30;;
44068;SDS011;29738;51.234;5.484;2023-03-12T06:37:24;10.80;;;4.03;;
44068;SDS011;29738;51.234;5.484;2023-03-12T06:39:53;10.02;;;4.57;;
44068;SDS011;29738;51.234;5.484;2023-03-12T06:42:19;9.48;;;5.25;;
44068;SDS011;29738;51.234;5.484;2023-03-12T06:44:48;13.25;;;5.10;;
44068;SDS011;29738;51.234;5.484;2023-03-12T06:47:15;11.43;;;4.82;;
44068;SDS011;29738;51.234;5.484;2023-03-12T06:49:41;10.57;;;4.78;;
44068;SDS011;29738;51.234;5.484;2023-03-12T06:52:07;7.60;;;4.32;;
44068;SDS011;29738;51.234;5.484;2023-03-12T06:54:33;9.30;;;5.10;;
44068;SDS011;29738;51.234;5.484;2023-03-12T06:56:58;10.60;;;4.82;;
44068;SDS011;29738;51.234;5.484;2023-03-12T06:59:25;9.43;;;4.30;;
44068;SDS011;29738;51.234;5.484;2023-03-12T07:01:52;7.70;;;3.60;;
44068;SDS011;29738;51.234;5.484;2023-03-12T07:04:18;8.52;;;4.28;;
44068;SDS011;29738;51.234;5.484;2023-03-12T07:06:44;9.20;;;4.28;;
44068;SDS011;29738;51.234;5.484;2023-03-12T07:09:14;8.20;;;3.90;;
44068;SDS011;29738;51.234;5.484;2023-03-12T07:11:42;7.35;;;3.70;;
44068;SDS011;29738;51.234;5.484;2023-03-12T07:14:08;10.13;;;4.88;;
44068;SDS011;29738;51.234;5.484;2023-03-12T07:16:34;10.75;;;4.80;;
44068;SDS011;29738;51.234;5.484;2023-03-12T07:19:00;10.65;;;4.72;;
44068;SDS011;29738;51.234;5.484;2023-03-12T07:21:28;9.10;;;4.82;;
44068;SDS011;29738;51.234;5.484;2023-03-12T07:23:56;8.55;;;4.57;;
44068;SDS011;29738;51.234;5.484;2023-03-12T07:26:22;9.25;;;4.88;;
44068;SDS011;29738;51.234;5.484;2023-03-12T07:28:48;8.45;;;4.75;;
44068;SDS011;29738;51.234;5.484;2023-03-12T07:31:14;8.55;;;5.05;;
44068;SDS011;29738;51.234;5.484;2023-03-12T07:33:40;9.55;;;5.43;;
44068;SDS011;29738;51.234;5.484;2023-03-12T07:36:09;9.10;;;5.07;;
44068;SDS011;29738;51.234;5.484;2023-03-12T07:38:44;12.98;;;5.40;;
44068;SDS011;29738;51.234;5.484;2023-03-12T07:41:10;12.32;;;5.28;;
44068;SDS011;29738;51.234;5.484;2023-03-12T07:43:36;10.15;;;5.15;;
44068;SDS011;29738;51.234;5.484;2023-03-12T07:46:02;10.52;;;5.45;;
44068;SDS011;29738;51.234;5.484;2023-03-12T07:48:28;10.07;;;5.80;;
44068;SDS011;29738;51.234;5.484;2023-03-12T07:50:54;8.57;;;4.75;;
44068;SDS011;29738;51.234;5.484;2023-03-12T07:53:20;11.48;;;5.70;;
44068;SDS011;29738;51.234;5.484;2023-03-12T07:55:46;9.60;;;5.05;;
44068;SDS011;29738;51.234;5.484;2023-03-12T07:58:13;9.05;;;4.88;;
44068;SDS011;29738;51.234;5.484;2023-03-12T08:00:40;10.35;;;5.03;;
44068;SDS011;29738;51.234;5.484;2023-03-12T08:03:06;11.23;;;5.75;;
44068;SDS011;29738;51.234;5.484;2023-03-12T08:05:32;10.93;;;5.10;;
44068;SDS011;29738;51.234;5.484;2023-03-12T08:07:58;8.98;;;4.75;;
44068;SDS011;29738;51.234;5.484;2023-03-12T08:10:24;11.07;;;6.13;;
44068;SDS011;29738;51.234;5.484;2023-03-12T08:12:50;9.93;;;4.93;;
44068;SDS011;29738;51.234;5.484;2023-03-12T08:15:18;13.68;;;5.97;;
44068;SDS011;29738;51.234;5.484;2023-03-12T08:17:44;9.98;;;5.88;;
44068;SDS011;29738;51.234;5.484;2023-03-12T08:20:11;8.80;;;5.25;;
44068;SDS011;29738;51.234;5.484;2023-03-12T08:22:37;9.02;;;4.55;;
44068;SDS011;29738;51.234;5.484;2023-03-12T08:25:04;15.02;;;7.82;;
44068;SDS011;29738;51.234;5.484;2023-03-12T08:27:31;10.70;;;6.20;;
44068;SDS011;29738;51.234;5.484;2023-03-12T08:29:58;11.00;;;5.97;;
44068;SDS011;29738;51.234;5.484;2023-03-12T08:32:24;12.75;;;5.82;;
44068;SDS011;29738;51.234;5.484;2023-03-12T08:34:50;14.55;;;7.72;;
44068;SDS011;29738;51.234;5.484;2023-03-12T08:37:16;11.80;;;7.63;;
44068;SDS011;29738;51.234;5.484;2023-03-12T08:39:42;13.50;;;7.97;;
44068;SDS011;29738;51.234;5.484;2023-03-12T08:42:08;16.42;;;11.77;;
44068;SDS011;29738;51.234;5.484;2023-03-12T08:44:34;11.30;;;6.15;;
44068;SDS011;29738;51.234;5.484;2023-03-12T08:47:00;15.20;;;7.45;;
44068;SDS011;29738;51.234;5.484;2023-03-12T08:49:26;24.10;;;9.43;;
44068;SDS011;29738;51.234;5.484;2023-03-12T08:51:52;21.50;;;16.23;;
44068;SDS011;29738;51.234;5.484;2023-03-12T08:54:19;15.43;;;8.23;;
44068;SDS011;29738;51.234;5.484;2023-03-12T08:56:48;18.48;;;8.80;;
44068;SDS011;29738;51.234;5.484;2023-03-12T08:59:18;13.70;;;8.15;;
44068;SDS011;29738;51.234;5.484;2023-03-12T09:01:44;16.60;;;8.57;;
44068;SDS011;29738;51.234;5.484;2023-03-12T09:04:13;17.50;;;10.55;;
44068;SDS011;29738;51.234;5.484;2023-03-12T09:06:39;19.02;;;11.05;;
44068;SDS011;29738;51.234;5.484;2023-03-12T09:09:08;17.92;;;9.55;;
44068;SDS011;29738;51.234;5.484;2023-03-12T09:11:34;23.85;;;13.38;;
44068;SDS011;29738;51.234;5.484;2023-03-12T09:14:03;18.73;;;10.25;;
44068;SDS011;29738;51.234;5.484;2023-03-12T09:16:29;18.23;;;9.95;;
44068;SDS011;29738;51.234;5.484;2023-03-12T09:18:58;26.17;;;13.02;;
44068;SDS011;29738;51.234;5.484;2023-03-12T09:21:24;20.95;;;10.10;;
44068;SDS011;29738;51.234;5.484;2023-03-12T09:23:53;15.45;;;8.63;;
44068;SDS011;29738;51.234;5.484;2023-03-12T09:26:19;34.17;;;16.83;;
44068;SDS011;29738;51.234;5.484;2023-03-12T09:28:45;18.98;;;9.07;;
44068;SDS011;29738;51.234;5.484;2023-03-12T09:31:14;33.90;;;17.95;;
44068;SDS011;29738;51.234;5.484;2023-03-12T09:33:40;22.65;;;15.38;;
44068;SDS011;29738;51.234;5.484;2023-03-12T09:36:06;23.58;;;13.98;;
44068;SDS011;29738;51.234;5.484;2023-03-12T09:38:34;25.27;;;12.35;;
44068;SDS011;29738;51.234;5.484;2023-03-12T09:41:03;18.63;;;9.00;;
44068;SDS011;29738;51.234;5.484;2023-03-12T09:46:43;21.73;;;10.82;;
44068;SDS011;29738;51.234;5.484;2023-03-12T09:49:28;24.20;;;9.35;;
44068;SDS011;29738;51.234;5.484;2023-03-12T09:52:21;16.67;;;8.80;;
44068;SDS011;29738;51.234;5.484;2023-03-12T09:55:05;18.53;;;8.43;;
44068;SDS011;29738;51.234;5.484;2023-03-12T09:57:39;23.63;;;9.20;;
44068;SDS011;29738;51.234;5.484;2023-03-12T10:00:12;13.80;;;7.00;;
44068;SDS011;29738;51.234;5.484;2023-03-12T10:14:27;17.08;;;8.85;;
44068;SDS011;29738;51.234;5.484;2023-03-12T10:22:54;26.98;;;10.88;;
44068;SDS011;29738;51.234;5.484;2023-03-12T10:25:41;24.08;;;10.23;;
44068;SDS011;29738;51.234;5.484;2023-03-12T10:31:02;27.88;;;12.27;;
44068;SDS011;29738;51.234;5.484;2023-03-12T10:33:50;21.05;;;8.95;;
44068;SDS011;29738;51.234;5.484;2023-03-12T10:36:34;23.48;;;8.60;;
44068;SDS011;29738;51.234;5.484;2023-03-12T10:39:03;33.58;;;11.57;;
44068;SDS011;29738;51.234;5.484;2023-03-12T10:41:31;21.00;;;7.82;;
44068;SDS011;29738;51.234;5.484;2023-03-12T10:44:01;23.27;;;10.25;;
44068;SDS011;29738;51.234;5.484;2023-03-12T10:49:24;26.60;;;10.02;;
44068;SDS011;29738;51.234;5.484;2023-03-12T10:54:31;23.40;;;8.07;;
44068;SDS011;29738;51.234;5.484;2023-03-12T10:56:59;20.40;;;7.40;;
44068;SDS011;29738;51.234;5.484;2023-03-12T10:59:44;22.80;;;10.07;;
44068;SDS011;29738;51.234;5.484;2023-03-12T11:02:25;27.45;;;8.02;;
44068;SDS011;29738;51.234;5.484;2023-03-12T11:04:52;32.70;;;9.50;;
44068;SDS011;29738;51.234;5.484;2023-03-12T11:07:20;28.42;;;9.90;;
44068;SDS011;29738;51.234;5.484;2023-03-12T11:12:33;26.00;;;7.82;;
44068;SDS011;29738;51.234;5.484;2023-03-12T11:15:20;26.30;;;8.95;;
44068;SDS011;29738;51.234;5.484;2023-03-12T11:17:48;25.00;;;6.57;;
44068;SDS011;29738;51.234;5.484;2023-03-12T11:22:49;27.13;;;7.80;;
44068;SDS011;29738;51.234;5.484;2023-03-12T11:25:27;25.65;;;8.32;;
44068;SDS011;29738;51.234;5.484;2023-03-12T11:28:02;25.60;;;7.45;;
44068;SDS011;29738;51.234;5.484;2023-03-12T11:30:39;28.17;;;7.47;;
44068;SDS011;29738;51.234;5.484;2023-03-12T11:33:07;18.30;;;5.90;;
44068;SDS011;29738;51.234;5.484;2023-03-12T11:38:27;22.88;;;6.03;;
44068;SDS011;29738;51.234;5.484;2023-03-12T11:43:50;26.77;;;6.10;;
44068;SDS011;29738;51.234;5.484;2023-03-12T11:46:20;16.35;;;5.13;;
44068;SDS011;29738;51.234;5.484;2023-03-12T11:54:19;25.77;;;6.13;;
44068;SDS011;29738;51.234;5.484;2023-03-12T11:56:53;17.40;;;5.40;;
44068;SDS011;29738;51.234;5.484;2023-03-12T11:59:48;23.48;;;5.43;;
44068;SDS011;29738;51.234;5.484;2023-03-12T12:05:20;18.70;;;5.55;;
44068;SDS011;29738;51.234;5.484;2023-03-12T12:11:17;21.00;;;5.28;;
44068;SDS011;29738;51.234;5.484;2023-03-12T12:13:57;11.55;;;3.45;;
44068;SDS011;29738;51.234;5.484;2023-03-12T12:19:42;25.33;;;5.63;;
44068;SDS011;29738;51.234;5.484;2023-03-12T12:22:35;19.50;;;5.65;;
44068;SDS011;29738;51.234;5.484;2023-03-12T12:25:23;21.00;;;5.30;;
44068;SDS011;29738;51.234;5.484;2023-03-12T12:31:02;23.23;;;3.65;;
44068;SDS011;29738;51.234;5.484;2023-03-12T12:36:31;19.45;;;4.32;;
44068;SDS011;29738;51.234;5.484;2023-03-12T12:39:04;16.95;;;3.85;;
44068;SDS011;29738;51.234;5.484;2023-03-12T12:41:58;25.90;;;6.00;;
44068;SDS011;29738;51.234;5.484;2023-03-12T12:44:31;14.88;;;4.60;;
44068;SDS011;29738;51.234;5.484;2023-03-12T12:47:02;15.38;;;4.03;;
44068;SDS011;29738;51.234;5.484;2023-03-12T12:49:53;18.05;;;5.30;;
44068;SDS011;29738;51.234;5.484;2023-03-12T12:52:28;18.27;;;4.93;;
44068;SDS011;29738;51.234;5.484;2023-03-12T12:55:12;19.15;;;4.70;;
44068;SDS011;29738;51.234;5.484;2023-03-12T12:57:44;17.10;;;5.20;;
44068;SDS011;29738;51.234;5.484;2023-03-12T13:00:24;12.52;;;4.05;;
44068;SDS011;29738;51.234;5.484;2023-03-12T13:03:16;12.60;;;3.92;;
44068;SDS011;29738;51.234;5.484;2023-03-12T13:05:46;22.02;;;4.60;;
44068;SDS011;29738;51.234;5.484;2023-03-12T13:13:48;27.20;;;5.22;;
44068;SDS011;29738;51.234;5.484;2023-03-12T13:16:16;16.42;;;3.33;;
44068;SDS011;29738;51.234;5.484;2023-03-12T13:18:54;14.85;;;4.15;;
44068;SDS011;29738;51.234;5.484;2023-03-12T13:21:23;21.33;;;4.13;;
44068;SDS011;29738;51.234;5.484;2023-03-12T13:24:12;13.57;;;3.60;;
44068;SDS011;29738;51.234;5.484;2023-03-12T13:29:49;13.68;;;3.67;;
44068;SDS011;29738;51.234;5.484;2023-03-12T13:34:59;18.52;;;3.42;;
44068;SDS011;29738;51.234;5.484;2023-03-12T13:48:25;17.85;;;3.70;;
44068;SDS011;29738;51.234;5.484;2023-03-12T13:50:58;22.23;;;4.57;;
44068;SDS011;29738;51.234;5.484;2023-03-12T13:53:33;15.53;;;3.80;;
44068;SDS011;29738;51.234;5.484;2023-03-12T13:56:12;17.30;;;4.57;;
44068;SDS011;29738;51.234;5.484;2023-03-12T13:58:45;18.60;;;4.18;;
44068;SDS011;29738;51.234;5.484;2023-03-12T14:01:31;20.20;;;4.22;;
44068;SDS011;29738;51.234;5.484;2023-03-12T14:04:22;17.10;;;3.63;;
44068;SDS011;29738;51.234;5.484;2023-03-12T14:12:05;26.77;;;7.40;;
44068;SDS011;29738;51.234;5.484;2023-03-12T14:17:30;16.87;;;3.93;;
44068;SDS011;29738;51.234;5.484;2023-03-12T14:20:08;19.55;;;4.07;;
44068;SDS011;29738;51.234;5.484;2023-03-12T14:22:53;13.23;;;3.47;;
44068;SDS011;29738;51.234;5.484;2023-03-12T14:25:28;20.02;;;4.40;;
44068;SDS011;29738;51.234;5.484;2023-03-12T14:27:56;18.08;;;4.10;;
44068;SDS011;29738;51.234;5.484;2023-03-12T14:30:22;25.73;;;3.72;;
44068;SDS011;29738;51.234;5.484;2023-03-12T14:33:04;11.82;;;2.60;;
44068;SDS011;29738;51.234;5.484;2023-03-12T14:35:32;21.92;;;5.00;;
44068;SDS011;29738;51.234;5.484;2023-03-12T14:38:06;14.32;;;3.47;;
44068;SDS011;29738;51.234;5.484;2023-03-12T14:44:02;19.88;;;3.40;;
44068;SDS011;29738;51.234;5.484;2023-03-12T14:46:30;18.27;;;3.75;;
44068;SDS011;29738;51.234;5.484;2023-03-12T14:48:56;20.65;;;4.47;;
44068;SDS011;29738;51.234;5.484;2023-03-12T14:51:23;21.67;;;3.78;;
44068;SDS011;29738;51.234;5.484;2023-03-12T14:54:00;20.73;;;3.92;;
44068;SDS011;29738;51.234;5.484;2023-03-12T14:56:28;20.25;;;3.70;;
44068;SDS011;29738;51.234;5.484;2023-03-12T14:58:58;21.98;;;3.58;;
44068;SDS011;29738;51.234;5.484;2023-03-12T15:01:28;14.45;;;3.47;;
44068;SDS011;29738;51.234;5.484;2023-03-12T15:03:57;20.15;;;4.07;;
44068;SDS011;29738;51.234;5.484;2023-03-12T15:06:32;18.08;;;4.13;;
44068;SDS011;29738;51.234;5.484;2023-03-12T15:09:17;19.15;;;3.72;;
44068;SDS011;29738;51.234;5.484;2023-03-12T15:11:50;24.13;;;4.47;;
44068;SDS011;29738;51.234;5.484;2023-03-12T15:14:19;15.15;;;4.43;;
44068;SDS011;29738;51.234;5.484;2023-03-12T15:16:47;16.02;;;3.72;;
44068;SDS011;29738;51.234;5.484;2023-03-12T15:19:15;15.55;;;3.33;;
44068;SDS011;29738;51.234;5.484;2023-03-12T15:21:44;15.88;;;3.13;;
44068;SDS011;29738;51.234;5.484;2023-03-12T15:24:11;15.48;;;3.15;;
44068;SDS011;29738;51.234;5.484;2023-03-12T15:26:38;16.35;;;3.83;;
44068;SDS011;29738;51.234;5.484;2023-03-12T15:32:05;18.75;;;3.97;;
44068;SDS011;29738;51.234;5.484;2023-03-12T15:34:38;18.25;;;9.20;;
44068;SDS011;29738;51.234;5.484;2023-03-12T15:42:51;37.30;;;15.82;;
44068;SDS011;29738;51.234;5.484;2023-03-12T15:47:58;22.58;;;11.25;;
44068;SDS011;29738;51.234;5.484;2023-03-12T15:50:36;15.20;;;4.75;;
44068;SDS011;29738;51.234;5.484;2023-03-12T15:55:41;18.08;;;3.75;;
44068;SDS011;29738;51.234;5.484;2023-03-12T15:58:28;12.57;;;3.60;;
44068;SDS011;29738;51.234;5.484;2023-03-12T16:01:06;16.17;;;4.65;;
44068;SDS011;29738;51.234;5.484;2023-03-12T16:03:32;22.27;;;3.78;;
44068;SDS011;29738;51.234;5.484;2023-03-12T16:05:58;20.40;;;3.72;;
44068;SDS011;29738;51.234;5.484;2023-03-12T16:08:25;14.68;;;3.90;;
44068;SDS011;29738;51.234;5.484;2023-03-12T16:10:57;19.60;;;5.13;;
44068;SDS011;29738;51.234;5.484;2023-03-12T16:13:26;13.02;;;3.15;;
44068;SDS011;29738;51.234;5.484;2023-03-12T16:15:55;34.08;;;14.85;;
44068;SDS011;29738;51.234;5.484;2023-03-12T16:18:25;19.67;;;9.75;;
44068;SDS011;29738;51.234;5.484;2023-03-12T16:20:51;17.23;;;5.53;;
44068;SDS011;29738;51.234;5.484;2023-03-12T16:23:18;12.18;;;6.55;;
44068;SDS011;29738;51.234;5.484;2023-03-12T16:25:47;42.15;;;27.60;;
44068;SDS011;29738;51.234;5.484;2023-03-12T16:28:18;23.58;;;15.30;;
44068;SDS011;29738;51.234;5.484;2023-03-12T16:30:46;13.65;;;4.70;;
44068;SDS011;29738;51.234;5.484;2023-03-12T16:33:17;16.25;;;5.28;;
44068;SDS011;29738;51.234;5.484;2023-03-12T16:35:44;17.08;;;6.00;;
44068;SDS011;29738;51.234;5.484;2023-03-12T16:38:11;13.70;;;4.25;;
44068;SDS011;29738;51.234;5.484;2023-03-12T16:40:38;21.77;;;4.40;;